sensor_id;sensor_type;location;lat;lon;timestamp;P1;durP1;ratioP1;P2;durP2;ratioP2
13959;SDS011;7052;51.050;3.716;2022-08-30T00:02:35;9.52;;;6.63;;
13959;SDS011;7052;51.050;3.716;2022-08-30T00:05:04;9.07;;;6.30;;
13959;SDS011;7052;51.050;3.716;2022-08-30T00:07:32;11.55;;;6.72;;
13959;SDS011;7052;51.050;3.716;2022-08-30T00:09:59;11.65;;;6.57;;
13959;SDS011;7052;51.050;3.716;2022-08-30T00:12:25;11.65;;;6.38;;
13959;SDS011;7052;51.050;3.716;2022-08-30T00:14:53;13.80;;;6.63;;
13959;SDS011;7052;51.050;3.716;2022-08-30T00:17:20;9.88;;;6.85;;
13959;SDS011;7052;51.050;3.716;2022-08-30T00:19:47;13.57;;;6.85;;
13959;SDS011;7052;51.050;3.716;2022-08-30T00:22:15;10.95;;;7.05;;
13959;SDS011;7052;51.050;3.716;2022-08-30T00:24:42;8.85;;;6.75;;
13959;SDS011;7052;51.050;3.716;2022-08-30T00:27:08;11.98;;;6.45;;
13959;SDS011;7052;51.050;3.716;2022-08-30T00:29:36;10.35;;;6.65;;
13959;SDS011;7052;51.050;3.716;2022-08-30T00:32:03;9.85;;;7.07;;
13959;SDS011;7052;51.050;3.716;2022-08-30T00:34:30;10.52;;;6.60;;
13959;SDS011;7052;51.050;3.716;2022-08-30T00:36:57;12.90;;;6.90;;
13959;SDS011;7052;51.050;3.716;2022-08-30T00:39:25;11.88;;;7.35;;
13959;SDS011;7052;51.050;3.716;2022-08-30T00:41:54;12.88;;;6.68;;
13959;SDS011;7052;51.050;3.716;2022-08-30T00:44:21;14.88;;;6.53;;
13959;SDS011;7052;51.050;3.716;2022-08-30T00:46:48;14.70;;;6.82;;
13959;SDS011;7052;51.050;3.716;2022-08-30T00:49:15;12.55;;;6.90;;
13959;SDS011;7052;51.050;3.716;2022-08-30T00:51:42;10.48;;;6.95;;
13959;SDS011;7052;51.050;3.716;2022-08-30T00:54:09;10.50;;;6.85;;
13959;SDS011;7052;51.050;3.716;2022-08-30T00:56:38;8.20;;;6.35;;
13959;SDS011;7052;51.050;3.716;2022-08-30T00:59:05;13.90;;;6.68;;
13959;SDS011;7052;51.050;3.716;2022-08-30T01:01:34;9.57;;;6.60;;
13959;SDS011;7052;51.050;3.716;2022-08-30T01:04:01;12.80;;;7.47;;
13959;SDS011;7052;51.050;3.716;2022-08-30T01:06:29;12.48;;;6.95;;
13959;SDS011;7052;51.050;3.716;2022-08-30T01:08:56;14.07;;;7.40;;
13959;SDS011;7052;51.050;3.716;2022-08-30T01:11:24;10.73;;;7.03;;
13959;SDS011;7052;51.050;3.716;2022-08-30T01:13:52;13.73;;;6.95;;
13959;SDS011;7052;51.050;3.716;2022-08-30T01:16:20;14.23;;;6.85;;
13959;SDS011;7052;51.050;3.716;2022-08-30T01:18:49;11.35;;;6.65;;
13959;SDS011;7052;51.050;3.716;2022-08-30T01:21:19;10.80;;;6.78;;
13959;SDS011;7052;51.050;3.716;2022-08-30T01:23:54;11.20;;;7.50;;
13959;SDS011;7052;51.050;3.716;2022-08-30T01:26:22;11.13;;;7.03;;
13959;SDS011;7052;51.050;3.716;2022-08-30T01:28:51;10.48;;;7.00;;
13959;SDS011;7052;51.050;3.716;2022-08-30T01:31:21;10.13;;;7.07;;
13959;SDS011;7052;51.050;3.716;2022-08-30T01:33:48;9.07;;;7.20;;
13959;SDS011;7052;51.050;3.716;2022-08-30T01:36:15;9.35;;;6.88;;
13959;SDS011;7052;51.050;3.716;2022-08-30T01:38:45;13.52;;;6.70;;
13959;SDS011;7052;51.050;3.716;2022-08-30T01:41:15;10.57;;;6.45;;
13959;SDS011;7052;51.050;3.716;2022-08-30T01:43:43;17.92;;;7.03;;
13959;SDS011;7052;51.050;3.716;2022-08-30T01:46:11;9.75;;;7.18;;
13959;SDS011;7052;51.050;3.716;2022-08-30T01:48:40;11.45;;;7.63;;
13959;SDS011;7052;51.050;3.716;2022-08-30T01:51:08;10.15;;;7.22;;
13959;SDS011;7052;51.050;3.716;2022-08-30T01:53:36;12.73;;;7.05;;
13959;SDS011;7052;51.050;3.716;2022-08-30T01:56:04;12.50;;;7.10;;
13959;SDS011;7052;51.050;3.716;2022-08-30T01:58:32;10.73;;;7.25;;
13959;SDS011;7052;51.050;3.716;2022-08-30T02:01:00;11.23;;;7.43;;
13959;SDS011;7052;51.050;3.716;2022-08-30T02:03:26;15.40;;;7.75;;
13959;SDS011;7052;51.050;3.716;2022-08-30T02:06:00;12.45;;;7.00;;
13959;SDS011;7052;51.050;3.716;2022-08-30T02:08:28;9.98;;;7.15;;
13959;SDS011;7052;51.050;3.716;2022-08-30T02:10:55;15.38;;;7.57;;
13959;SDS011;7052;51.050;3.716;2022-08-30T02:13:23;11.45;;;7.25;;
13959;SDS011;7052;51.050;3.716;2022-08-30T02:15:51;12.10;;;7.25;;
13959;SDS011;7052;51.050;3.716;2022-08-30T02:18:19;12.48;;;7.80;;
13959;SDS011;7052;51.050;3.716;2022-08-30T02:20:46;9.85;;;7.13;;
13959;SDS011;7052;51.050;3.716;2022-08-30T02:23:12;12.13;;;7.60;;
13959;SDS011;7052;51.050;3.716;2022-08-30T02:25:39;12.95;;;7.78;;
13959;SDS011;7052;51.050;3.716;2022-08-30T02:28:07;10.95;;;7.03;;
13959;SDS011;7052;51.050;3.716;2022-08-30T02:30:34;13.57;;;7.55;;
13959;SDS011;7052;51.050;3.716;2022-08-30T02:33:02;14.82;;;7.60;;
13959;SDS011;7052;51.050;3.716;2022-08-30T02:35:29;11.63;;;7.85;;
13959;SDS011;7052;51.050;3.716;2022-08-30T02:37:56;11.20;;;7.65;;
13959;SDS011;7052;51.050;3.716;2022-08-30T02:40:23;11.65;;;8.02;;
13959;SDS011;7052;51.050;3.716;2022-08-30T02:42:50;9.88;;;7.70;;
13959;SDS011;7052;51.050;3.716;2022-08-30T02:45:16;11.63;;;8.15;;
13959;SDS011;7052;51.050;3.716;2022-08-30T02:47:43;10.77;;;7.55;;
13959;SDS011;7052;51.050;3.716;2022-08-30T02:50:12;12.68;;;7.70;;
13959;SDS011;7052;51.050;3.716;2022-08-30T02:52:39;13.85;;;7.85;;
13959;SDS011;7052;51.050;3.716;2022-08-30T02:55:06;10.73;;;8.63;;
13959;SDS011;7052;51.050;3.716;2022-08-30T02:57:34;10.43;;;8.00;;
13959;SDS011;7052;51.050;3.716;2022-08-30T03:00:03;12.63;;;8.40;;
13959;SDS011;7052;51.050;3.716;2022-08-30T03:02:31;13.00;;;8.20;;
13959;SDS011;7052;51.050;3.716;2022-08-30T03:04:58;11.35;;;8.05;;
13959;SDS011;7052;51.050;3.716;2022-08-30T03:07:27;14.93;;;8.80;;
13959;SDS011;7052;51.050;3.716;2022-08-30T03:09:54;14.15;;;8.20;;
13959;SDS011;7052;51.050;3.716;2022-08-30T03:12:21;11.07;;;8.25;;
13959;SDS011;7052;51.050;3.716;2022-08-30T03:14:49;12.07;;;8.32;;
13959;SDS011;7052;51.050;3.716;2022-08-30T03:17:16;11.48;;;8.45;;
13959;SDS011;7052;51.050;3.716;2022-08-30T03:19:43;10.05;;;8.23;;
13959;SDS011;7052;51.050;3.716;2022-08-30T03:22:10;12.65;;;8.48;;
13959;SDS011;7052;51.050;3.716;2022-08-30T03:24:39;13.20;;;9.00;;
13959;SDS011;7052;51.050;3.716;2022-08-30T03:27:06;12.32;;;8.30;;
13959;SDS011;7052;51.050;3.716;2022-08-30T03:29:33;12.32;;;8.70;;
13959;SDS011;7052;51.050;3.716;2022-08-30T03:32:00;13.68;;;8.13;;
13959;SDS011;7052;51.050;3.716;2022-08-30T03:34:27;15.32;;;8.73;;
13959;SDS011;7052;51.050;3.716;2022-08-30T03:36:54;10.75;;;8.13;;
13959;SDS011;7052;51.050;3.716;2022-08-30T03:39:22;10.75;;;8.25;;
13959;SDS011;7052;51.050;3.716;2022-08-30T03:41:51;9.90;;;8.70;;
13959;SDS011;7052;51.050;3.716;2022-08-30T03:44:19;12.10;;;8.63;;
13959;SDS011;7052;51.050;3.716;2022-08-30T03:46:46;12.65;;;8.00;;
13959;SDS011;7052;51.050;3.716;2022-08-30T03:49:13;11.85;;;9.20;;
13959;SDS011;7052;51.050;3.716;2022-08-30T03:51:40;13.43;;;8.70;;
13959;SDS011;7052;51.050;3.716;2022-08-30T03:54:07;11.45;;;7.97;;
13959;SDS011;7052;51.050;3.716;2022-08-30T03:56:34;12.13;;;8.38;;
13959;SDS011;7052;51.050;3.716;2022-08-30T03:59:02;12.95;;;8.52;;
13959;SDS011;7052;51.050;3.716;2022-08-30T04:01:29;10.52;;;8.65;;
13959;SDS011;7052;51.050;3.716;2022-08-30T04:03:56;11.98;;;8.85;;
13959;SDS011;7052;51.050;3.716;2022-08-30T04:06:23;13.70;;;9.07;;
13959;SDS011;7052;51.050;3.716;2022-08-30T04:08:50;14.30;;;9.40;;
13959;SDS011;7052;51.050;3.716;2022-08-30T04:11:16;9.40;;;8.30;;
13959;SDS011;7052;51.050;3.716;2022-08-30T04:13:45;11.23;;;8.85;;
13959;SDS011;7052;51.050;3.716;2022-08-30T04:16:14;11.02;;;8.85;;
13959;SDS011;7052;51.050;3.716;2022-08-30T04:18:41;10.63;;;9.30;;
13959;SDS011;7052;51.050;3.716;2022-08-30T04:21:08;17.13;;;9.43;;
13959;SDS011;7052;51.050;3.716;2022-08-30T04:23:35;14.43;;;9.20;;
13959;SDS011;7052;51.050;3.716;2022-08-30T04:26:01;11.95;;;9.30;;
13959;SDS011;7052;51.050;3.716;2022-08-30T04:28:28;12.98;;;9.07;;
13959;SDS011;7052;51.050;3.716;2022-08-30T04:30:55;12.82;;;9.45;;
13959;SDS011;7052;51.050;3.716;2022-08-30T04:33:23;10.73;;;8.90;;
13959;SDS011;7052;51.050;3.716;2022-08-30T04:35:50;13.95;;;9.25;;
13959;SDS011;7052;51.050;3.716;2022-08-30T04:38:17;12.48;;;9.02;;
13959;SDS011;7052;51.050;3.716;2022-08-30T04:40:45;14.57;;;9.50;;
13959;SDS011;7052;51.050;3.716;2022-08-30T04:43:12;12.10;;;8.70;;
13959;SDS011;7052;51.050;3.716;2022-08-30T04:45:40;11.65;;;8.88;;
13959;SDS011;7052;51.050;3.716;2022-08-30T04:48:07;11.93;;;8.60;;
13959;SDS011;7052;51.050;3.716;2022-08-30T04:50:36;12.70;;;8.50;;
13959;SDS011;7052;51.050;3.716;2022-08-30T04:53:02;13.70;;;9.60;;
13959;SDS011;7052;51.050;3.716;2022-08-30T04:55:29;13.27;;;9.85;;
13959;SDS011;7052;51.050;3.716;2022-08-30T04:57:56;16.30;;;9.88;;
13959;SDS011;7052;51.050;3.716;2022-08-30T05:00:23;13.15;;;9.00;;
13959;SDS011;7052;51.050;3.716;2022-08-30T05:02:50;17.90;;;9.48;;
13959;SDS011;7052;51.050;3.716;2022-08-30T05:05:17;16.90;;;10.07;;
13959;SDS011;7052;51.050;3.716;2022-08-30T05:08:04;14.20;;;9.23;;
13959;SDS011;7052;51.050;3.716;2022-08-30T05:10:31;12.50;;;9.00;;
13959;SDS011;7052;51.050;3.716;2022-08-30T05:12:58;15.90;;;9.13;;
13959;SDS011;7052;51.050;3.716;2022-08-30T05:15:24;38.13;;;11.32;;
13959;SDS011;7052;51.050;3.716;2022-08-30T05:17:51;13.23;;;8.88;;
13959;SDS011;7052;51.050;3.716;2022-08-30T05:20:18;13.95;;;9.15;;
13959;SDS011;7052;51.050;3.716;2022-08-30T05:22:45;17.27;;;9.45;;
13959;SDS011;7052;51.050;3.716;2022-08-30T05:25:19;13.30;;;9.75;;
13959;SDS011;7052;51.050;3.716;2022-08-30T05:27:47;11.15;;;9.13;;
13959;SDS011;7052;51.050;3.716;2022-08-30T05:30:15;11.55;;;8.85;;
13959;SDS011;7052;51.050;3.716;2022-08-30T05:32:43;16.40;;;9.45;;
13959;SDS011;7052;51.050;3.716;2022-08-30T05:35:11;14.70;;;9.50;;
13959;SDS011;7052;51.050;3.716;2022-08-30T05:37:39;15.10;;;9.98;;
13959;SDS011;7052;51.050;3.716;2022-08-30T05:40:06;16.77;;;9.65;;
13959;SDS011;7052;51.050;3.716;2022-08-30T05:42:35;12.90;;;9.52;;
13959;SDS011;7052;51.050;3.716;2022-08-30T05:45:02;13.98;;;9.27;;
13959;SDS011;7052;51.050;3.716;2022-08-30T05:47:30;42.42;;;12.10;;
13959;SDS011;7052;51.050;3.716;2022-08-30T05:49:56;11.10;;;9.20;;
13959;SDS011;7052;51.050;3.716;2022-08-30T05:52:23;18.45;;;10.77;;
13959;SDS011;7052;51.050;3.716;2022-08-30T05:54:51;15.25;;;10.73;;
13959;SDS011;7052;51.050;3.716;2022-08-30T05:57:19;19.98;;;11.00;;
13959;SDS011;7052;51.050;3.716;2022-08-30T05:59:48;11.85;;;8.95;;
13959;SDS011;7052;51.050;3.716;2022-08-30T06:02:15;13.77;;;9.77;;
13959;SDS011;7052;51.050;3.716;2022-08-30T06:04:42;11.35;;;9.70;;
13959;SDS011;7052;51.050;3.716;2022-08-30T06:07:09;12.00;;;9.82;;
13959;SDS011;7052;51.050;3.716;2022-08-30T06:09:36;16.80;;;12.23;;
13959;SDS011;7052;51.050;3.716;2022-08-30T06:12:03;10.38;;;9.32;;
13959;SDS011;7052;51.050;3.716;2022-08-30T06:14:30;14.27;;;9.65;;
13959;SDS011;7052;51.050;3.716;2022-08-30T06:16:58;10.32;;;9.32;;
13959;SDS011;7052;51.050;3.716;2022-08-30T06:19:25;11.02;;;9.90;;
13959;SDS011;7052;51.050;3.716;2022-08-30T06:21:52;13.82;;;10.20;;
13959;SDS011;7052;51.050;3.716;2022-08-30T06:24:18;14.15;;;9.75;;
13959;SDS011;7052;51.050;3.716;2022-08-30T06:26:45;16.45;;;9.80;;
13959;SDS011;7052;51.050;3.716;2022-08-30T06:29:13;13.63;;;9.90;;
13959;SDS011;7052;51.050;3.716;2022-08-30T06:31:41;13.32;;;9.13;;
13959;SDS011;7052;51.050;3.716;2022-08-30T06:34:10;10.63;;;8.65;;
13959;SDS011;7052;51.050;3.716;2022-08-30T06:36:37;10.07;;;9.07;;
13959;SDS011;7052;51.050;3.716;2022-08-30T06:39:04;13.60;;;9.43;;
13959;SDS011;7052;51.050;3.716;2022-08-30T06:41:32;11.40;;;9.52;;
13959;SDS011;7052;51.050;3.716;2022-08-30T06:44:01;12.32;;;9.60;;
13959;SDS011;7052;51.050;3.716;2022-08-30T06:46:30;13.77;;;9.80;;
13959;SDS011;7052;51.050;3.716;2022-08-30T06:48:59;13.48;;;9.85;;
13959;SDS011;7052;51.050;3.716;2022-08-30T06:51:28;15.45;;;10.00;;
13959;SDS011;7052;51.050;3.716;2022-08-30T06:53:56;11.10;;;9.63;;
13959;SDS011;7052;51.050;3.716;2022-08-30T06:56:23;10.85;;;9.77;;
13959;SDS011;7052;51.050;3.716;2022-08-30T06:58:51;12.60;;;9.75;;
13959;SDS011;7052;51.050;3.716;2022-08-30T07:01:19;13.90;;;10.15;;
13959;SDS011;7052;51.050;3.716;2022-08-30T07:03:47;11.10;;;9.75;;
13959;SDS011;7052;51.050;3.716;2022-08-30T07:06:15;11.00;;;9.82;;
13959;SDS011;7052;51.050;3.716;2022-08-30T07:08:44;15.73;;;10.15;;
13959;SDS011;7052;51.050;3.716;2022-08-30T07:11:12;13.63;;;9.82;;
13959;SDS011;7052;51.050;3.716;2022-08-30T07:13:39;13.07;;;9.90;;
13959;SDS011;7052;51.050;3.716;2022-08-30T07:16:09;15.82;;;10.50;;
13959;SDS011;7052;51.050;3.716;2022-08-30T07:18:37;12.23;;;10.60;;
13959;SDS011;7052;51.050;3.716;2022-08-30T07:21:17;11.52;;;9.35;;
13959;SDS011;7052;51.050;3.716;2022-08-30T07:23:48;13.38;;;10.10;;
13959;SDS011;7052;51.050;3.716;2022-08-30T07:26:19;10.82;;;9.73;;
13959;SDS011;7052;51.050;3.716;2022-08-30T07:28:47;13.32;;;10.15;;
13959;SDS011;7052;51.050;3.716;2022-08-30T07:31:15;11.45;;;10.25;;
13959;SDS011;7052;51.050;3.716;2022-08-30T07:33:43;12.05;;;10.18;;
13959;SDS011;7052;51.050;3.716;2022-08-30T07:36:11;11.82;;;10.13;;
13959;SDS011;7052;51.050;3.716;2022-08-30T07:38:39;14.20;;;10.40;;
13959;SDS011;7052;51.050;3.716;2022-08-30T07:41:08;14.27;;;10.43;;
13959;SDS011;7052;51.050;3.716;2022-08-30T07:43:35;13.98;;;9.95;;
13959;SDS011;7052;51.050;3.716;2022-08-30T07:46:03;16.33;;;10.30;;
13959;SDS011;7052;51.050;3.716;2022-08-30T07:48:31;12.10;;;9.98;;
13959;SDS011;7052;51.050;3.716;2022-08-30T07:50:58;12.90;;;9.65;;
13959;SDS011;7052;51.050;3.716;2022-08-30T07:53:25;11.80;;;9.90;;
13959;SDS011;7052;51.050;3.716;2022-08-30T07:55:52;15.15;;;10.20;;
13959;SDS011;7052;51.050;3.716;2022-08-30T07:58:21;13.23;;;10.80;;
13959;SDS011;7052;51.050;3.716;2022-08-30T08:00:47;13.18;;;10.88;;
13959;SDS011;7052;51.050;3.716;2022-08-30T08:03:14;15.02;;;10.30;;
13959;SDS011;7052;51.050;3.716;2022-08-30T08:05:43;13.32;;;10.30;;
13959;SDS011;7052;51.050;3.716;2022-08-30T08:08:11;11.63;;;10.35;;
13959;SDS011;7052;51.050;3.716;2022-08-30T08:10:39;13.05;;;10.38;;
13959;SDS011;7052;51.050;3.716;2022-08-30T08:13:07;13.88;;;9.55;;
13959;SDS011;7052;51.050;3.716;2022-08-30T08:15:41;13.18;;;10.57;;
13959;SDS011;7052;51.050;3.716;2022-08-30T08:18:08;13.25;;;9.77;;
13959;SDS011;7052;51.050;3.716;2022-08-30T08:20:35;13.30;;;10.20;;
13959;SDS011;7052;51.050;3.716;2022-08-30T08:23:02;12.85;;;10.27;;
13959;SDS011;7052;51.050;3.716;2022-08-30T08:25:29;11.55;;;9.77;;
13959;SDS011;7052;51.050;3.716;2022-08-30T08:27:56;13.88;;;9.73;;
13959;SDS011;7052;51.050;3.716;2022-08-30T08:30:23;13.73;;;9.77;;
13959;SDS011;7052;51.050;3.716;2022-08-30T08:32:51;14.27;;;9.63;;
13959;SDS011;7052;51.050;3.716;2022-08-30T08:35:18;14.43;;;9.80;;
13959;SDS011;7052;51.050;3.716;2022-08-30T08:37:45;14.95;;;9.57;;
13959;SDS011;7052;51.050;3.716;2022-08-30T08:40:13;10.73;;;8.95;;
13959;SDS011;7052;51.050;3.716;2022-08-30T08:42:46;11.48;;;8.32;;
13959;SDS011;7052;51.050;3.716;2022-08-30T08:45:20;9.82;;;8.80;;
13959;SDS011;7052;51.050;3.716;2022-08-30T08:47:59;13.73;;;8.85;;
13959;SDS011;7052;51.050;3.716;2022-08-30T08:50:29;15.02;;;9.15;;
13959;SDS011;7052;51.050;3.716;2022-08-30T08:52:58;10.50;;;8.45;;
13959;SDS011;7052;51.050;3.716;2022-08-30T08:55:58;12.32;;;8.70;;
13959;SDS011;7052;51.050;3.716;2022-08-30T08:58:27;9.40;;;8.52;;
13959;SDS011;7052;51.050;3.716;2022-08-30T09:00:57;10.43;;;8.07;;
13959;SDS011;7052;51.050;3.716;2022-08-30T09:03:27;9.52;;;8.15;;
13959;SDS011;7052;51.050;3.716;2022-08-30T09:05:54;11.25;;;8.52;;
13959;SDS011;7052;51.050;3.716;2022-08-30T09:08:23;10.40;;;7.45;;
13959;SDS011;7052;51.050;3.716;2022-08-30T09:10:52;10.20;;;8.25;;
13959;SDS011;7052;51.050;3.716;2022-08-30T09:13:21;10.63;;;7.80;;
13959;SDS011;7052;51.050;3.716;2022-08-30T09:15:49;10.45;;;7.90;;
13959;SDS011;7052;51.050;3.716;2022-08-30T09:18:18;12.20;;;7.90;;
13959;SDS011;7052;51.050;3.716;2022-08-30T09:20:47;9.25;;;7.88;;
13959;SDS011;7052;51.050;3.716;2022-08-30T09:23:23;9.70;;;8.02;;
13959;SDS011;7052;51.050;3.716;2022-08-30T09:25:53;11.65;;;7.97;;
13959;SDS011;7052;51.050;3.716;2022-08-30T09:28:23;18.67;;;7.88;;
13959;SDS011;7052;51.050;3.716;2022-08-30T09:30:58;10.60;;;7.72;;
13959;SDS011;7052;51.050;3.716;2022-08-30T09:33:27;10.77;;;7.60;;
13959;SDS011;7052;51.050;3.716;2022-08-30T09:35:56;8.82;;;7.10;;
13959;SDS011;7052;51.050;3.716;2022-08-30T09:38:38;11.80;;;7.65;;
13959;SDS011;7052;51.050;3.716;2022-08-30T09:44:03;12.52;;;7.50;;
13959;SDS011;7052;51.050;3.716;2022-08-30T09:46:32;12.10;;;6.90;;
13959;SDS011;7052;51.050;3.716;2022-08-30T09:49:01;12.25;;;7.35;;
13959;SDS011;7052;51.050;3.716;2022-08-30T09:51:34;10.35;;;7.30;;
13959;SDS011;7052;51.050;3.716;2022-08-30T09:54:11;12.88;;;7.50;;
13959;SDS011;7052;51.050;3.716;2022-08-30T09:56:46;9.30;;;7.60;;
13959;SDS011;7052;51.050;3.716;2022-08-30T09:59:24;9.10;;;7.63;;
13959;SDS011;7052;51.050;3.716;2022-08-30T10:02:05;12.18;;;7.50;;
13959;SDS011;7052;51.050;3.716;2022-08-30T10:04:47;10.43;;;6.93;;
13959;SDS011;7052;51.050;3.716;2022-08-30T10:07:21;16.38;;;7.00;;
13959;SDS011;7052;51.050;3.716;2022-08-30T10:09:59;13.57;;;7.82;;
13959;SDS011;7052;51.050;3.716;2022-08-30T10:12:34;8.48;;;6.47;;
13959;SDS011;7052;51.050;3.716;2022-08-30T10:15:07;13.43;;;7.57;;
13959;SDS011;7052;51.050;3.716;2022-08-30T10:17:42;9.80;;;7.75;;
13959;SDS011;7052;51.050;3.716;2022-08-30T10:20:16;9.63;;;7.10;;
13959;SDS011;7052;51.050;3.716;2022-08-30T10:22:51;11.45;;;7.30;;
13959;SDS011;7052;51.050;3.716;2022-08-30T10:25:23;8.10;;;7.18;;
13959;SDS011;7052;51.050;3.716;2022-08-30T10:27:54;11.23;;;7.03;;
13959;SDS011;7052;51.050;3.716;2022-08-30T10:30:25;9.25;;;6.75;;
13959;SDS011;7052;51.050;3.716;2022-08-30T10:32:57;11.48;;;7.68;;
13959;SDS011;7052;51.050;3.716;2022-08-30T10:35:32;9.13;;;7.20;;
13959;SDS011;7052;51.050;3.716;2022-08-30T10:38:04;8.10;;;6.60;;
13959;SDS011;7052;51.050;3.716;2022-08-30T10:40:36;10.63;;;7.18;;
13959;SDS011;7052;51.050;3.716;2022-08-30T10:43:23;8.15;;;6.50;;
13959;SDS011;7052;51.050;3.716;2022-08-30T10:45:55;10.93;;;7.43;;
13959;SDS011;7052;51.050;3.716;2022-08-30T10:48:26;9.30;;;7.45;;
13959;SDS011;7052;51.050;3.716;2022-08-30T10:50:57;11.85;;;7.50;;
13959;SDS011;7052;51.050;3.716;2022-08-30T10:53:31;8.93;;;6.70;;
13959;SDS011;7052;51.050;3.716;2022-08-30T10:56:05;8.05;;;7.15;;
13959;SDS011;7052;51.050;3.716;2022-08-30T10:58:35;11.32;;;7.13;;
13959;SDS011;7052;51.050;3.716;2022-08-30T11:01:07;13.20;;;7.50;;
13959;SDS011;7052;51.050;3.716;2022-08-30T11:07:06;8.50;;;7.40;;
13959;SDS011;7052;51.050;3.716;2022-08-30T11:09:57;11.05;;;7.20;;
13959;SDS011;7052;51.050;3.716;2022-08-30T11:12:34;11.10;;;7.35;;
13959;SDS011;7052;51.050;3.716;2022-08-30T11:15:10;10.30;;;6.53;;
13959;SDS011;7052;51.050;3.716;2022-08-30T11:17:44;8.07;;;6.90;;
13959;SDS011;7052;51.050;3.716;2022-08-30T11:20:23;7.20;;;6.45;;
13959;SDS011;7052;51.050;3.716;2022-08-30T11:25:56;8.57;;;6.13;;
13959;SDS011;7052;51.050;3.716;2022-08-30T11:31:32;11.60;;;6.18;;
13959;SDS011;7052;51.050;3.716;2022-08-30T11:37:29;10.80;;;5.90;;
13959;SDS011;7052;51.050;3.716;2022-08-30T11:40:02;8.70;;;5.68;;
13959;SDS011;7052;51.050;3.716;2022-08-30T11:42:40;7.03;;;6.07;;
13959;SDS011;7052;51.050;3.716;2022-08-30T11:51:09;7.82;;;5.70;;
13959;SDS011;7052;51.050;3.716;2022-08-30T11:54:06;7.25;;;5.95;;
13959;SDS011;7052;51.050;3.716;2022-08-30T11:56:44;10.77;;;5.78;;
13959;SDS011;7052;51.050;3.716;2022-08-30T11:59:21;10.93;;;5.97;;
13959;SDS011;7052;51.050;3.716;2022-08-30T12:01:53;8.23;;;5.13;;
13959;SDS011;7052;51.050;3.716;2022-08-30T12:04:25;10.30;;;6.22;;
13959;SDS011;7052;51.050;3.716;2022-08-30T12:07:00;9.52;;;4.97;;
13959;SDS011;7052;51.050;3.716;2022-08-30T12:12:47;7.90;;;5.25;;
13959;SDS011;7052;51.050;3.716;2022-08-30T12:18:23;8.65;;;5.18;;
13959;SDS011;7052;51.050;3.716;2022-08-30T12:23:52;7.95;;;4.75;;
13959;SDS011;7052;51.050;3.716;2022-08-30T12:26:31;5.13;;;4.53;;
13959;SDS011;7052;51.050;3.716;2022-08-30T12:29:08;9.00;;;4.75;;
13959;SDS011;7052;51.050;3.716;2022-08-30T12:31:43;6.95;;;4.70;;
13959;SDS011;7052;51.050;3.716;2022-08-30T12:34:16;7.68;;;4.82;;
13959;SDS011;7052;51.050;3.716;2022-08-30T12:36:52;8.95;;;4.53;;
13959;SDS011;7052;51.050;3.716;2022-08-30T12:39:25;8.55;;;4.95;;
13959;SDS011;7052;51.050;3.716;2022-08-30T12:41:55;7.68;;;4.57;;
13959;SDS011;7052;51.050;3.716;2022-08-30T12:44:23;7.25;;;4.90;;
13959;SDS011;7052;51.050;3.716;2022-08-30T12:46:54;9.48;;;4.63;;
13959;SDS011;7052;51.050;3.716;2022-08-30T12:49:26;9.40;;;5.25;;
13959;SDS011;7052;51.050;3.716;2022-08-30T12:51:55;8.60;;;4.60;;
13959;SDS011;7052;51.050;3.716;2022-08-30T12:54:41;11.07;;;5.00;;
13959;SDS011;7052;51.050;3.716;2022-08-30T12:57:08;6.65;;;4.35;;
13959;SDS011;7052;51.050;3.716;2022-08-30T12:59:41;11.77;;;5.28;;
13959;SDS011;7052;51.050;3.716;2022-08-30T13:02:13;9.65;;;4.30;;
13959;SDS011;7052;51.050;3.716;2022-08-30T13:04:42;9.15;;;4.32;;
13959;SDS011;7052;51.050;3.716;2022-08-30T13:07:22;8.30;;;4.30;;
13959;SDS011;7052;51.050;3.716;2022-08-30T13:10:05;9.73;;;4.40;;
13959;SDS011;7052;51.050;3.716;2022-08-30T13:12:38;7.00;;;3.92;;
13959;SDS011;7052;51.050;3.716;2022-08-30T13:15:09;5.70;;;3.75;;
13959;SDS011;7052;51.050;3.716;2022-08-30T13:17:43;10.85;;;4.03;;
13959;SDS011;7052;51.050;3.716;2022-08-30T13:20:21;7.75;;;4.28;;
13959;SDS011;7052;51.050;3.716;2022-08-30T13:23:00;7.93;;;3.72;;
13959;SDS011;7052;51.050;3.716;2022-08-30T13:25:30;6.45;;;3.78;;
13959;SDS011;7052;51.050;3.716;2022-08-30T13:27:58;6.22;;;3.60;;
13959;SDS011;7052;51.050;3.716;2022-08-30T13:30:26;10.07;;;3.85;;
13959;SDS011;7052;51.050;3.716;2022-08-30T13:32:55;5.55;;;3.83;;
13959;SDS011;7052;51.050;3.716;2022-08-30T13:35:22;8.60;;;4.00;;
13959;SDS011;7052;51.050;3.716;2022-08-30T13:37:49;7.20;;;3.90;;
13959;SDS011;7052;51.050;3.716;2022-08-30T13:40:17;7.20;;;3.50;;
13959;SDS011;7052;51.050;3.716;2022-08-30T13:42:45;3.88;;;3.33;;
13959;SDS011;7052;51.050;3.716;2022-08-30T13:45:13;7.43;;;3.92;;
13959;SDS011;7052;51.050;3.716;2022-08-30T13:47:41;7.95;;;4.10;;
13959;SDS011;7052;51.050;3.716;2022-08-30T13:50:12;6.53;;;3.67;;
13959;SDS011;7052;51.050;3.716;2022-08-30T13:52:39;8.15;;;4.13;;
13959;SDS011;7052;51.050;3.716;2022-08-30T13:55:06;10.85;;;4.18;;
13959;SDS011;7052;51.050;3.716;2022-08-30T13:57:34;10.80;;;4.10;;
13959;SDS011;7052;51.050;3.716;2022-08-30T14:00:02;7.40;;;3.58;;
13959;SDS011;7052;51.050;3.716;2022-08-30T14:02:29;6.47;;;3.45;;
13959;SDS011;7052;51.050;3.716;2022-08-30T14:04:56;9.18;;;3.70;;
13959;SDS011;7052;51.050;3.716;2022-08-30T14:07:24;5.85;;;4.05;;
13959;SDS011;7052;51.050;3.716;2022-08-30T14:09:51;7.57;;;4.00;;
13959;SDS011;7052;51.050;3.716;2022-08-30T14:12:18;5.25;;;3.60;;
13959;SDS011;7052;51.050;3.716;2022-08-30T14:14:45;8.80;;;3.88;;
13959;SDS011;7052;51.050;3.716;2022-08-30T14:17:12;8.70;;;3.92;;
13959;SDS011;7052;51.050;3.716;2022-08-30T14:19:39;8.13;;;3.88;;
13959;SDS011;7052;51.050;3.716;2022-08-30T14:22:06;6.25;;;3.60;;
13959;SDS011;7052;51.050;3.716;2022-08-30T14:24:34;8.60;;;3.33;;
13959;SDS011;7052;51.050;3.716;2022-08-30T14:27:01;6.50;;;3.72;;
13959;SDS011;7052;51.050;3.716;2022-08-30T14:29:27;5.30;;;4.25;;
13959;SDS011;7052;51.050;3.716;2022-08-30T14:31:55;6.50;;;3.38;;
13959;SDS011;7052;51.050;3.716;2022-08-30T14:34:24;5.28;;;3.90;;
13959;SDS011;7052;51.050;3.716;2022-08-30T14:36:51;5.47;;;3.70;;
13959;SDS011;7052;51.050;3.716;2022-08-30T14:39:19;5.63;;;3.35;;
13959;SDS011;7052;51.050;3.716;2022-08-30T14:41:49;7.72;;;3.72;;
13959;SDS011;7052;51.050;3.716;2022-08-30T14:44:18;8.98;;;3.60;;
13959;SDS011;7052;51.050;3.716;2022-08-30T14:46:46;7.57;;;3.65;;
13959;SDS011;7052;51.050;3.716;2022-08-30T14:49:15;7.53;;;4.28;;
13959;SDS011;7052;51.050;3.716;2022-08-30T14:51:43;4.32;;;3.70;;
13959;SDS011;7052;51.050;3.716;2022-08-30T14:54:12;10.52;;;3.55;;
13959;SDS011;7052;51.050;3.716;2022-08-30T14:56:40;5.07;;;3.30;;
13959;SDS011;7052;51.050;3.716;2022-08-30T14:59:09;8.90;;;3.45;;
13959;SDS011;7052;51.050;3.716;2022-08-30T15:01:36;9.85;;;3.60;;
13959;SDS011;7052;51.050;3.716;2022-08-30T15:04:05;5.72;;;3.20;;
13959;SDS011;7052;51.050;3.716;2022-08-30T15:06:33;6.38;;;3.40;;
13959;SDS011;7052;51.050;3.716;2022-08-30T15:09:00;8.93;;;3.70;;
13959;SDS011;7052;51.050;3.716;2022-08-30T15:11:28;5.28;;;3.20;;
13959;SDS011;7052;51.050;3.716;2022-08-30T15:13:55;5.88;;;3.33;;
13959;SDS011;7052;51.050;3.716;2022-08-30T15:16:25;4.57;;;3.05;;
13959;SDS011;7052;51.050;3.716;2022-08-30T15:18:53;5.57;;;3.63;;
13959;SDS011;7052;51.050;3.716;2022-08-30T15:21:22;7.60;;;3.50;;
13959;SDS011;7052;51.050;3.716;2022-08-30T15:23:50;3.83;;;3.10;;
13959;SDS011;7052;51.050;3.716;2022-08-30T15:26:17;5.32;;;3.90;;
13959;SDS011;7052;51.050;3.716;2022-08-30T15:28:45;10.93;;;3.35;;
13959;SDS011;7052;51.050;3.716;2022-08-30T15:31:12;7.03;;;3.30;;
13959;SDS011;7052;51.050;3.716;2022-08-30T15:33:40;6.35;;;3.40;;
13959;SDS011;7052;51.050;3.716;2022-08-30T15:36:07;7.15;;;3.10;;